createdAt,value
2022-08-17T00:00:42.580Z,100323.94
2022-08-17T00:03:28.102Z,100328.41
2022-08-17T00:06:22.660Z,100318.91
2022-08-17T00:08:58.268Z,100325.00
2022-08-17T00:11:33.924Z,100323.84
2022-08-17T00:14:07.315Z,100326.28
2022-08-17T00:16:55.544Z,100331.97
2022-08-17T00:19:25.817Z,100334.38
2022-08-17T00:22:30.857Z,100328.56
2022-08-17T00:24:44.979Z,100331.72
2022-08-17T00:27:12.576Z,100325.59
2022-08-17T00:29:40.686Z,100323.34
2022-08-17T00:33:14.542Z,100318.78
2022-08-17T00:34:55.927Z,100322.66
2022-08-17T00:37:27.801Z,100311.06
2022-08-17T00:39:55.546Z,100309.53
2022-08-17T00:42:26.403Z,100307.91
2022-08-17T00:44:58.379Z,100295.41
2022-08-17T00:47:28.985Z,100306.94
2022-08-17T00:49:56.562Z,100311.31
2022-08-17T00:52:27.773Z,100306.22
2022-08-17T00:54:56.113Z,100315.03
2022-08-17T00:57:26.660Z,100309.25
2022-08-17T01:00:03.125Z,100314.84
2022-08-17T01:02:41.248Z,100314.22
2022-08-17T01:05:18.407Z,100303.72
2022-08-17T01:07:47.165Z,100313.19
2022-08-17T01:10:58.195Z,100314.94
2022-08-17T01:13:03.120Z,100304.34
2022-08-17T01:15:31.858Z,100306.25
2022-08-17T01:18:00.396Z,100301.03
2022-08-17T01:20:28.194Z,100305.19
2022-08-17T01:22:55.922Z,100298.31
2022-08-17T01:25:23.560Z,100300.59
2022-08-17T01:27:51.788Z,100301.19
2022-08-17T01:30:56.813Z,100294.41
2022-08-17T01:33:11.546Z,100294.41
2022-08-17T01:35:39.639Z,100293.81
2022-08-17T01:38:07.850Z,100294.91
2022-08-17T01:40:39.220Z,100283.03
2022-08-17T01:43:29.873Z,100289.22
2022-08-17T01:46:03.451Z,100296.69
2022-08-17T01:48:35.638Z,100292.50
2022-08-17T01:51:04.415Z,100289.00
2022-08-17T01:53:35.494Z,100289.19
2022-08-17T01:56:07.758Z,100283.41
2022-08-17T01:58:36.473Z,100278.44
2022-08-17T02:01:04.749Z,100287.84
2022-08-17T02:03:35.747Z,100286.75
2022-08-17T02:06:05.826Z,100288.94
2022-08-17T02:09:01.765Z,100280.06
2022-08-17T02:11:33.875Z,100281.63
2022-08-17T02:14:04.046Z,100279.97
2022-08-17T02:16:37.088Z,100282.16
2022-08-17T02:19:09.002Z,100279.31
2022-08-17T02:21:38.183Z,100274.53
2022-08-17T02:24:08.024Z,100279.22
2022-08-17T02:26:36.108Z,100282.59
2022-08-17T02:29:04.370Z,100282.84
2022-08-17T02:31:31.967Z,100284.53
2022-08-17T02:34:04.005Z,100283.34
2022-08-17T02:36:35.654Z,100273.13
2022-08-17T02:39:04.708Z,100279.00
2022-08-17T02:41:32.446Z,100274.47
2022-08-17T02:44:00.291Z,100268.16
2022-08-17T02:46:28.475Z,100274.41
2022-08-17T02:48:56.220Z,100276.00
2022-08-17T02:51:23.886Z,100270.22
2022-08-17T02:53:51.607Z,100272.56
2022-08-17T02:56:19.290Z,100272.47
2022-08-17T02:58:46.890Z,100268.84
2022-08-17T03:01:14.745Z,100272.19
2022-08-17T03:03:42.416Z,100274.13
2022-08-17T03:06:10.210Z,100276.66
2022-08-17T03:08:38.363Z,100273.97
2022-08-17T03:11:06.004Z,100269.69
2022-08-17T03:13:34.229Z,100278.47
2022-08-17T03:16:01.968Z,100269.56
2022-08-17T03:18:29.653Z,100267.97
2022-08-17T03:21:00.657Z,100272.63
2022-08-17T03:23:29.725Z,100270.34
2022-08-17T03:25:58.141Z,100270.50
2022-08-17T03:28:25.777Z,100276.34
2022-08-17T03:30:53.475Z,100273.94
2022-08-17T03:33:21.348Z,100286.69
2022-08-17T03:35:49.060Z,100288.63
2022-08-17T03:38:17.584Z,100296.22
2022-08-17T03:40:57.031Z,100300.53
2022-08-17T03:43:30.895Z,100316.91
2022-08-17T03:46:34.759Z,100321.31
2022-08-17T03:49:23.097Z,100314.19
2022-08-17T03:52:09.092Z,100312.44
2022-08-17T03:54:55.517Z,100322.16
2022-08-17T03:57:23.116Z,100310.72
2022-08-17T03:59:51.177Z,100315.75
2022-08-17T04:02:22.567Z,100320.72
2022-08-17T04:04:51.171Z,100321.38
2022-08-17T04:07:22.925Z,100326.38
2022-08-17T04:09:50.803Z,100327.84
2022-08-17T04:12:20.037Z,100329.63
2022-08-17T04:14:47.826Z,100332.19
2022-08-17T04:17:27.060Z,100334.06
2022-08-17T04:19:54.874Z,100328.63
2022-08-17T04:22:31.262Z,100315.59
2022-08-17T04:25:07.636Z,100322.34
2022-08-17T04:27:36.341Z,100327.34
2022-08-17T04:30:04.554Z,100326.28
2022-08-17T04:33:02.264Z,100330.75
2022-08-17T04:35:22.789Z,100315.94
2022-08-17T04:37:50.894Z,100317.84
2022-08-17T04:40:37.890Z,100328.69
2022-08-17T04:43:18.590Z,100331.16
2022-08-17T04:45:55.302Z,100327.88
2022-08-17T04:48:29.686Z,100326.66
2022-08-17T04:51:10.209Z,100321.66
2022-08-17T04:53:39.813Z,100323.22
2022-08-17T04:56:08.118Z,100321.09
2022-08-17T04:58:45.302Z,100316.63
2022-08-17T05:01:13.194Z,100326.78
2022-08-17T05:03:41.986Z,100312.66
2022-08-17T05:06:09.662Z,100313.88
2022-08-17T05:08:37.358Z,100315.28
2022-08-17T05:11:05.648Z,100312.94
2022-08-17T05:13:33.453Z,100318.31
2022-08-17T05:16:02.599Z,100313.47
2022-08-17T05:18:30.476Z,100316.88
2022-08-17T05:20:58.655Z,100315.44
2022-08-17T05:23:27.239Z,100317.66
2022-08-17T05:26:06.251Z,100307.69
2022-08-17T05:28:37.862Z,100301.91
2022-08-17T05:31:05.714Z,100294.94
2022-08-17T05:33:35.418Z,100307.59
2022-08-17T05:36:04.033Z,100299.84
2022-08-17T05:38:32.478Z,100296.94
2022-08-17T05:41:01.893Z,100294.09
2022-08-17T05:43:31.790Z,100296.25
2022-08-17T05:46:23.809Z,100305.75
2022-08-17T05:49:11.763Z,100293.34
2022-08-17T05:52:08.808Z,100293.03
2022-08-17T05:54:47.353Z,100294.47
2022-08-17T05:57:24.632Z,100294.66
2022-08-17T06:00:11.730Z,100304.31
2022-08-17T06:03:00.832Z,100293.81
2022-08-17T06:06:01.625Z,100299.66
2022-08-17T06:08:40.852Z,100298.81
2022-08-17T06:11:21.021Z,100292.78
2022-08-17T06:14:09.445Z,100302.50
2022-08-17T06:16:41.301Z,100297.25
2022-08-17T06:19:16.300Z,100300.84
2022-08-17T06:21:46.642Z,100294.75
2022-08-17T06:24:23.828Z,100296.03
2022-08-17T06:26:51.576Z,100289.28
2022-08-17T06:29:39.187Z,100292.16
2022-08-17T06:32:08.707Z,100281.91
2022-08-17T06:34:37.863Z,100286.34
2022-08-17T06:37:21.403Z,100291.44
2022-08-17T06:40:16.235Z,100292.28
2022-08-17T06:43:00.851Z,100283.13
2022-08-17T06:45:54.487Z,100285.94
2022-08-17T06:48:26.039Z,100286.34
2022-08-17T06:51:00.370Z,100283.94
2022-08-17T06:53:32.345Z,100283.44
2022-08-17T06:56:13.800Z,100285.00
2022-08-17T06:58:43.531Z,100280.53
2022-08-17T07:01:15.041Z,100278.34
2022-08-17T07:04:21.958Z,100274.72
2022-08-17T07:06:57.281Z,100268.09
2022-08-17T07:09:28.964Z,100270.00
2022-08-17T07:11:59.858Z,100268.78
2022-08-17T07:14:32.096Z,100267.34
2022-08-17T07:17:02.148Z,100267.41
2022-08-17T07:19:32.154Z,100274.00
2022-08-17T07:22:06.021Z,100268.19
2022-08-17T07:24:35.702Z,100270.09
2022-08-17T07:27:04.488Z,100267.47
2022-08-17T07:29:40.790Z,100269.53
2022-08-17T07:32:09.066Z,100265.09
2022-08-17T07:35:01.637Z,100265.31
2022-08-17T07:37:32.543Z,100269.00
2022-08-17T07:40:16.409Z,100273.75
2022-08-17T07:43:01.214Z,100271.41
2022-08-17T07:45:49.241Z,100271.59
2022-08-17T07:48:24.259Z,100279.41
2022-08-17T07:50:53.418Z,100278.47
2022-08-17T07:53:25.139Z,100275.19
2022-08-17T07:55:53.409Z,100266.47
2022-08-17T07:58:23.632Z,100267.59
2022-08-17T08:01:11.901Z,100265.19
2022-08-17T08:03:42.811Z,100256.19
2022-08-17T08:06:25.097Z,100258.81
2022-08-17T08:08:55.077Z,100259.50
2022-08-17T08:11:31.442Z,100256.25
2022-08-17T08:14:29.521Z,100256.41
2022-08-17T08:17:04.139Z,100253.44
2022-08-17T08:19:34.065Z,100241.31
2022-08-17T08:22:08.015Z,100239.09
2022-08-17T08:25:01.506Z,100242.97
2022-08-17T08:27:35.747Z,100234.56
2022-08-17T08:30:10.482Z,100232.56
2022-08-17T08:32:46.652Z,100232.25
2022-08-17T08:35:26.801Z,100237.19
2022-08-17T08:38:29.445Z,100231.56
2022-08-17T08:41:22.174Z,100234.94
2022-08-17T08:44:10.150Z,100220.16
2022-08-17T08:47:03.436Z,100237.09
2022-08-17T08:50:08.881Z,100225.06
2022-08-17T08:53:02.527Z,100218.75
2022-08-17T08:55:52.818Z,100218.91
2022-08-17T08:58:42.046Z,100217.59
2022-08-17T09:01:57.642Z,100215.75
2022-08-17T09:04:27.809Z,100217.72
2022-08-17T09:06:58.246Z,100210.41
2022-08-17T09:09:25.764Z,100205.91
2022-08-17T09:12:14.562Z,100212.47
2022-08-17T09:14:59.653Z,100223.38
2022-08-17T09:17:47.517Z,100212.75
2022-08-17T09:20:14.985Z,100209.03
2022-08-17T09:22:57.914Z,100207.97
2022-08-17T09:25:28.514Z,100202.69
2022-08-17T09:28:00.619Z,100202.25
2022-08-17T09:30:36.416Z,100196.63
2022-08-17T09:33:07.291Z,100198.00
2022-08-17T09:36:02.732Z,100201.38
2022-08-17T09:38:57.425Z,100204.09
2022-08-17T09:41:49.467Z,100209.22
2022-08-17T09:44:29.234Z,100198.91
2022-08-17T09:47:16.121Z,100213.38
2022-08-17T09:49:49.017Z,100204.84
2022-08-17T09:52:26.549Z,100207.34
2022-08-17T09:54:55.176Z,100205.41
2022-08-17T09:57:38.990Z,100215.06
2022-08-17T10:00:13.343Z,100214.25
2022-08-17T10:03:18.119Z,100205.13
2022-08-17T10:06:21.716Z,100214.75
2022-08-17T10:09:07.525Z,100202.00
2022-08-17T10:12:17.179Z,100201.34
2022-08-17T10:15:09.972Z,100209.69
2022-08-17T10:18:10.324Z,100205.84
2022-08-17T10:20:44.144Z,100211.81
2022-08-17T10:23:33.873Z,100200.66
2022-08-17T10:26:24.116Z,100209.31
2022-08-17T10:29:09.631Z,100209.56
2022-08-17T10:32:08.803Z,100219.28
2022-08-17T10:35:13.171Z,100213.22
2022-08-17T10:38:00.260Z,100215.03
2022-08-17T10:40:49.171Z,100215.59
2022-08-17T10:43:34.933Z,100213.13
2022-08-17T10:46:33.701Z,100213.69
2022-08-17T10:49:36.175Z,100209.13
2022-08-17T10:52:19.717Z,100213.22
2022-08-17T10:54:58.101Z,100213.63
2022-08-17T10:57:32.217Z,100200.88
2022-08-17T11:00:35.287Z,100206.88
2022-08-17T11:03:03.305Z,100208.22
2022-08-17T11:05:54.265Z,100209.38
2022-08-17T11:08:24.398Z,100202.63
2022-08-17T11:11:20.321Z,100202.53
2022-08-17T11:14:14.385Z,100201.69
2022-08-17T11:17:07.546Z,100198.81
2022-08-17T11:20:14.268Z,100198.78
2022-08-17T11:22:55.800Z,100203.22
2022-08-17T11:25:42.075Z,100200.88
2022-08-17T11:28:14.472Z,100195.06
2022-08-17T11:30:47.074Z,100197.75
2022-08-17T11:33:38.039Z,100187.81
2022-08-17T11:36:34.375Z,100191.69
2022-08-17T11:39:06.807Z,100185.84
2022-08-17T11:42:07.540Z,100186.88
2022-08-17T11:44:57.598Z,100178.72
2022-08-17T11:48:09.458Z,100174.41
2022-08-17T11:51:06.574Z,100174.59
2022-08-17T11:53:40.091Z,100181.72
2022-08-17T11:56:32.354Z,100178.84
2022-08-17T11:59:00.993Z,100186.63
2022-08-17T12:01:31.686Z,100175.50
2022-08-17T12:04:19.927Z,100181.44
2022-08-17T12:07:09.274Z,100171.88
2022-08-17T12:09:39.623Z,100162.69
2022-08-17T12:12:14.719Z,100166.09
2022-08-17T12:15:11.407Z,100154.09
2022-08-17T12:17:42.617Z,100138.47
2022-08-17T12:20:24.276Z,100154.13
2022-08-17T12:23:12.945Z,100151.50
2022-08-17T12:25:51.788Z,100158.56
2022-08-17T12:28:33.371Z,100153.88
2022-08-17T12:31:04.299Z,100149.94
2022-08-17T12:33:31.822Z,100153.25
2022-08-17T12:36:05.126Z,100147.41
2022-08-17T12:38:34.876Z,100156.47
2022-08-17T12:41:23.968Z,100154.13
2022-08-17T12:44:03.228Z,100146.75
2022-08-17T12:47:05.180Z,100150.31
2022-08-17T12:49:35.749Z,100143.59
2022-08-17T12:52:07.896Z,100142.19
2022-08-17T12:54:47.787Z,100143.06
2022-08-17T12:57:21.019Z,100141.03
2022-08-17T13:00:04.410Z,100139.88
2022-08-17T13:02:40.311Z,100138.72
2022-08-17T13:05:17.944Z,100136.28
2022-08-17T13:07:48.055Z,100150.22
2022-08-17T13:10:35.643Z,100140.31
2022-08-17T13:13:06.079Z,100144.72
2022-08-17T13:15:54.281Z,100149.72
2022-08-17T13:18:48.848Z,100147.25
2022-08-17T13:21:28.294Z,100142.84
2022-08-17T13:24:00.471Z,100153.78
2022-08-17T13:26:51.367Z,100148.00
2022-08-17T13:29:24.187Z,100153.94
2022-08-17T13:32:04.714Z,100152.28
2022-08-17T13:35:12.454Z,100151.97
2022-08-17T13:37:34.543Z,100153.13
2022-08-17T13:40:08.125Z,100150.13
2022-08-17T13:42:50.411Z,100148.31
2022-08-17T13:45:39.615Z,100151.78
2022-08-17T13:48:07.458Z,100151.03
2022-08-17T13:50:40.338Z,100151.66
2022-08-17T13:53:31.559Z,100149.13
2022-08-17T13:56:38.849Z,100156.03
2022-08-17T13:59:00.310Z,100151.59
2022-08-17T14:01:52.777Z,100147.69
2022-08-17T14:04:24.117Z,100149.22
2022-08-17T14:06:56.459Z,100146.63
2022-08-17T14:09:31.418Z,100146.56
2022-08-17T14:12:03.262Z,100153.72
2022-08-17T14:14:30.968Z,100156.34
2022-08-17T14:16:58.602Z,100156.19
2022-08-17T14:19:26.452Z,100157.28
2022-08-17T14:21:59.142Z,100163.16
2022-08-17T14:24:33.202Z,100152.16
2022-08-17T14:27:01.424Z,100156.00
2022-08-17T14:29:48.142Z,100158.38
2022-08-17T14:32:23.173Z,100152.91
2022-08-17T14:34:53.462Z,100161.81
2022-08-17T14:37:38.442Z,100155.78
2022-08-17T14:40:11.542Z,100159.69
2022-08-17T14:42:40.406Z,100162.09
2022-08-17T14:45:32.324Z,100169.16
2022-08-17T14:47:56.815Z,100176.75
2022-08-17T14:50:25.215Z,100176.50
2022-08-17T14:52:56.429Z,100169.31
2022-08-17T14:55:26.575Z,100157.00
2022-08-17T14:57:54.154Z,100157.81
2022-08-17T15:00:22.050Z,100154.22
2022-08-17T15:02:54.648Z,100153.50
2022-08-17T15:05:23.702Z,100146.94
2022-08-17T15:07:53.611Z,100142.84
2022-08-17T15:10:21.438Z,100140.94
2022-08-17T15:12:49.304Z,100156.53
2022-08-17T15:15:18.866Z,100162.25
2022-08-17T15:17:46.597Z,100164.31
2022-08-17T15:20:16.284Z,100169.94
2022-08-17T15:22:44.513Z,100177.72
2022-08-17T15:25:12.765Z,100176.69
2022-08-17T15:27:40.603Z,100179.16
2022-08-17T15:30:09.031Z,100177.91
2022-08-17T15:32:38.447Z,100184.44
2022-08-17T15:35:06.937Z,100194.72
2022-08-17T15:37:34.787Z,100202.16
2022-08-17T15:40:02.608Z,100204.94
2022-08-17T15:42:30.541Z,100194.66
2022-08-17T15:45:00.052Z,100191.56
2022-08-17T15:47:27.848Z,100194.06
2022-08-17T15:49:59.925Z,100193.84
2022-08-17T15:52:29.861Z,100192.56
2022-08-17T15:54:58.952Z,100192.22
2022-08-17T15:57:26.990Z,100183.75
2022-08-17T15:59:58.803Z,100187.72
2022-08-17T16:03:15.061Z,100183.16
2022-08-17T16:05:19.929Z,100181.53
2022-08-17T16:07:49.193Z,100190.03
2022-08-17T16:10:19.192Z,100183.75
2022-08-17T16:12:48.094Z,100180.84
2022-08-17T16:15:16.345Z,100178.91
2022-08-17T16:17:44.459Z,100176.84
2022-08-17T16:20:20.120Z,100186.94
2022-08-17T16:22:49.526Z,100181.34
2022-08-17T16:25:23.067Z,100189.88
2022-08-17T16:28:10.785Z,100193.47
2022-08-17T16:30:38.844Z,100198.06
2022-08-17T16:33:06.496Z,100199.13
2022-08-17T16:35:34.363Z,100207.09
2022-08-17T16:38:02.909Z,100202.53
2022-08-17T16:40:35.718Z,100206.75
2022-08-17T16:43:07.204Z,100216.72
2022-08-17T16:45:40.682Z,100221.34
2022-08-17T16:48:09.589Z,100220.97
2022-08-17T16:50:37.398Z,100202.75
2022-08-17T16:53:09.210Z,100207.75
2022-08-17T16:55:37.720Z,100204.75
2022-08-17T16:58:05.797Z,100205.41
2022-08-17T17:00:36.313Z,100200.56
2022-08-17T17:03:19.193Z,100200.66
2022-08-17T17:06:22.376Z,100196.28
2022-08-17T17:09:01.025Z,100201.03
2022-08-17T17:11:42.082Z,100201.84
2022-08-17T17:14:11.826Z,100202.41
2022-08-17T17:17:03.547Z,100207.94
2022-08-17T17:19:38.469Z,100213.22
2022-08-17T17:22:25.477Z,100200.91
2022-08-17T17:25:18.159Z,100205.63
2022-08-17T17:27:56.295Z,100207.38
2022-08-17T17:30:24.894Z,100213.19
2022-08-17T17:32:56.079Z,100213.56
2022-08-17T17:35:34.232Z,100208.25
2022-08-17T17:38:06.572Z,100212.22
2022-08-17T17:40:40.564Z,100201.31
2022-08-17T17:43:35.258Z,100203.56
2022-08-17T17:46:38.049Z,100207.81
2022-08-17T17:49:06.332Z,100211.72
2022-08-17T17:52:06.888Z,100215.66
2022-08-17T17:55:03.005Z,100205.38
2022-08-17T17:57:47.060Z,100209.22
2022-08-17T18:00:24.727Z,100207.00
2022-08-17T18:03:13.356Z,100204.78
2022-08-17T18:05:47.765Z,100208.47
2022-08-17T18:08:34.831Z,100202.44
2022-08-17T18:11:24.534Z,100208.50
2022-08-17T18:14:15.576Z,100207.38
2022-08-17T18:16:43.745Z,100191.28
2022-08-17T18:19:15.388Z,100191.53
2022-08-17T18:21:46.032Z,100193.78
2022-08-17T18:24:13.957Z,100197.41
2022-08-17T18:26:54.201Z,100188.81
2022-08-17T18:29:24.524Z,100191.06
2022-08-17T18:32:22.485Z,100190.47
2022-08-17T18:35:03.764Z,100183.78
2022-08-17T18:37:45.268Z,100189.94
2022-08-17T18:40:21.937Z,100187.50
2022-08-17T18:43:14.404Z,100187.78
2022-08-17T18:45:46.255Z,100192.25
2022-08-17T18:48:36.978Z,100193.38
2022-08-17T18:51:42.060Z,100191.69
2022-08-17T18:54:17.057Z,100196.16
2022-08-17T18:57:00.501Z,100199.78
2022-08-17T18:59:42.535Z,100197.03
2022-08-17T19:02:38.756Z,100201.47
2022-08-17T19:05:13.751Z,100198.69
2022-08-17T19:07:44.513Z,100203.97
2022-08-17T19:10:46.249Z,100192.56
2022-08-17T19:13:24.184Z,100196.19
2022-08-17T19:16:07.923Z,100203.44
2022-08-17T19:18:48.489Z,100203.44
2022-08-17T19:21:23.193Z,100198.41
2022-08-17T19:24:05.757Z,100199.53
2022-08-17T19:26:54.499Z,100198.97
2022-08-17T19:29:30.390Z,100196.47
2022-08-17T19:31:58.893Z,100192.28
2022-08-17T19:34:33.184Z,100190.06
2022-08-17T19:37:38.789Z,100192.25
2022-08-17T19:40:51.576Z,100191.13
2022-08-17T19:43:31.280Z,100190.81
2022-08-17T19:46:19.351Z,100188.28
2022-08-17T19:48:58.999Z,100190.50
2022-08-17T19:52:05.137Z,100182.16
2022-08-17T19:55:24.657Z,100187.13
2022-08-17T19:58:00.857Z,100191.78
2022-08-17T20:00:28.687Z,100195.97
2022-08-17T20:03:16.778Z,100195.97
2022-08-17T20:06:11.659Z,100194.81
2022-08-17T20:08:43.877Z,100194.47
2022-08-17T20:11:17.513Z,100193.06
2022-08-17T20:14:09.730Z,100191.09
2022-08-17T20:16:37.366Z,100181.84
2022-08-17T20:19:27.886Z,100182.66
2022-08-17T20:22:15.670Z,100187.59
2022-08-17T20:25:08.569Z,100185.13
2022-08-17T20:27:51.191Z,100185.13
2022-08-17T20:30:39.200Z,100181.22
2022-08-17T20:33:33.069Z,100183.97
2022-08-17T20:36:20.713Z,100186.03
2022-08-17T20:38:48.329Z,100194.38
2022-08-17T20:41:23.592Z,100184.44
2022-08-17T20:43:57.296Z,100183.50
2022-08-17T20:46:37.596Z,100179.06
2022-08-17T20:49:14.638Z,100186.25
2022-08-17T20:52:00.778Z,100175.06
2022-08-17T20:54:42.095Z,100177.50
2022-08-17T20:57:14.033Z,100179.91
2022-08-17T20:59:42.511Z,100172.69
2022-08-17T21:02:19.544Z,100170.81
2022-08-17T21:04:50.123Z,100171.44
2022-08-17T21:07:33.149Z,100180.06
2022-08-17T21:10:26.366Z,100172.34
2022-08-17T21:13:13.800Z,100177.91
2022-08-17T21:15:52.568Z,100178.97
2022-08-17T21:18:46.711Z,100179.22
2022-08-17T21:21:30.388Z,100171.38
2022-08-17T21:24:07.231Z,100177.69
2022-08-17T21:26:50.762Z,100171.06
2022-08-17T21:29:32.286Z,100177.41
2022-08-17T21:32:05.405Z,100169.66
2022-08-17T21:34:34.456Z,100171.59
2022-08-17T21:37:20.590Z,100174.16
2022-08-17T21:40:19.905Z,100162.75
2022-08-17T21:42:54.124Z,100167.47
2022-08-17T21:45:35.248Z,100165.72
2022-08-17T21:48:14.520Z,100179.91
2022-08-17T21:50:57.345Z,100169.66
2022-08-17T21:53:34.073Z,100168.69
2022-08-17T21:56:01.841Z,100170.84
2022-08-17T21:58:35.061Z,100167.53
2022-08-17T22:01:23.841Z,100163.94
2022-08-17T22:03:56.538Z,100171.13
2022-08-17T22:06:34.569Z,100164.22
2022-08-17T22:09:07.348Z,100178.56
2022-08-17T22:11:52.726Z,100163.31
2022-08-17T22:14:22.939Z,100159.97
2022-08-17T22:17:18.423Z,100164.41
2022-08-17T22:19:59.118Z,100170.53
2022-08-17T22:22:55.862Z,100162.53
2022-08-17T22:25:24.423Z,100160.00
2022-08-17T22:27:55.666Z,100160.56
2022-08-17T22:30:42.219Z,100173.03
2022-08-17T22:33:28.940Z,100173.25
2022-08-17T22:36:23.202Z,100171.00
2022-08-17T22:38:55.873Z,100175.88
2022-08-17T22:41:35.839Z,100174.50
2022-08-17T22:44:17.391Z,100174.56
2022-08-17T22:47:11.591Z,100174.75
2022-08-17T22:49:54.027Z,100176.84
2022-08-17T22:53:13.688Z,100177.53
2022-08-17T22:56:10.005Z,100168.97
2022-08-17T22:59:09.701Z,100175.59
2022-08-17T23:01:39.251Z,100177.31
2022-08-17T23:04:10.132Z,100180.66
2022-08-17T23:06:40.260Z,100179.78
2022-08-17T23:09:07.974Z,100169.88
2022-08-17T23:11:48.908Z,100171.97
2022-08-17T23:14:19.339Z,100172.25
2022-08-17T23:16:48.838Z,100175.03
2022-08-17T23:19:18.771Z,100165.81
2022-08-17T23:21:46.959Z,100166.38
2022-08-17T23:24:25.989Z,100165.25
2022-08-17T23:26:54.572Z,100171.94
2022-08-17T23:29:22.702Z,100173.03
2022-08-17T23:31:51.228Z,100179.72
2022-08-17T23:34:19.158Z,100179.22
2022-08-17T23:36:52.402Z,100184.75
2022-08-17T23:39:27.395Z,100185.16
2022-08-17T23:41:59.812Z,100187.88
2022-08-17T23:44:27.869Z,100180.69
2022-08-17T23:46:55.583Z,100178.41
2022-08-17T23:49:25.328Z,100188.38
2022-08-17T23:51:55.944Z,100186.72
2022-08-17T23:54:23.518Z,100186.41
2022-08-17T23:56:51.315Z,100185.41
2022-08-17T23:59:19.864Z,100184.41
